Pagrindinis puslapis
METAR-TAF:

METAR-TAF

Oro uostai :

Akapulkas, Meksika

platuma: 16-46N, ilguma: 099-45W, Aukštis: 5 m

Dabartinis oras

Ataskaita buvo paskelbta 1 valandą ir 11 minutes, ne 04:51 UTC
Vėjas 6 kt iš Vakarų
Temperatūra 26°C
Drėgmė 89%
Slėgis 1016 hPa
Matomumas: 9.7 km
Giedras dangus

METAR: MMAA 230451Z 27006KT 6SM SKC 26/24 A2999 RMK HZY CI

Laikas: 00:02 (06:02 UTC)

Prognozė

Ataskaita buvo paskelbta 1 valandą ir 39 minutes, ne 04:23 UTC
Prognozė galioja nuo 23 metu 06 UTC su 24 metu 12 UTC
Vėjas 5 kt iš Šiaurės/Šiaurės Vakarų
Matomumas: 10 km
Giedras dangus
Nuo 23 metu 1800 UTC
Vėjas 10 kt iš Vakarų/Pietvakarių
Matomumas: 10 km
Išsisklaidę debesys ne aukštis 10000 ft
Išsisklaidę debesys ne aukštis 25000 ft
Nuo 24 metu 0600 UTC
Vėjas 5 kt iš Šiaurės/Šiaurės Vakarų
Matomumas: 10 km
Giedras dangus

TAF: MMAA 230423Z 2306/2412 34005KT P6SM SKC TX31/2319Z TN23/2312Z FM231800 24010KT P6SM SCT100 SCT250 FM240600 34005KT P6SM SKC

Orai ataskaitas ir orų prognozės (METAR, TAF).

turimą stotys yra geltonos ir raudonos taškus žemėlapyje.

Perkelti pele per norėdami pamatyti stoties vardą.

Tada spustelėkite, norėdami matyti oro stebėjimo ir prognozės.

Norėdami pakeisti žemėlapį: spustelėkite ant žalios mygtukų su juodo kryžiaus žemyn,; žalią mygtuką su brūkšneliu, jei norite nutolinti; arba žalių rodyklių gretimoms žemėlapius.


METAR-TAF: